Data for 03/28/2010

Time Sea-Level Adjusted Pressure Absolute Pressure Temperature Relative Humidity Dew Point   
(mb) (inHg) (mb) (inHg) (C) (F) (%) (C) (F)
00:05 1023 30.21 853 25.19 3.2 37.7 46 -7.5 18.6
00:10 1024 30.24 853 25.19 3.1 37.6 45 -7.8 18
00:15 1024 30.24 853 25.19 3 37.4 47 -7.4 18.7
00:20 1024 30.24 853 25.19 2.7 36.8 47 -7.5 18.6
00:25 1024 30.24 853 25.19 2.7 36.8 46 -7.9 17.8
00:30 1024 30.24 853 25.19 3.1 37.6 43 -8.2 17.3
00:35 1024 30.24 853 25.19 3.4 38.1 45 -7.5 18.4
00:40 1024 30.24 853 25.19 3.1 37.6 45 -7.8 18
00:45 1024 30.24 853 25.19 2.8 37.1 46 -7.6 18.4
00:50 1024 30.24 853 25.19 2.5 36.5 47 -7.8 17.9
00:55 1023 30.21 853 25.19 2.4 36.4 45 -8.2 17.2
01:00 1023 30.21 853 25.19 2.5 36.5 46 -8 17.6
01:05 1023 30.21 853 25.19 2.5 36.5 45 -8.2 17.2
01:10 1023 30.21 852 25.16 2.6 36.7 44 -8.5 16.7
01:15 1023 30.21 852 25.16 2.7 36.9 45 -8 17.6
01:20 1023 30.21 852 25.16 2.2 35.9 48 -7.8 17.9
01:25 1023 30.21 852 25.16 2 35.6 47 -8.2 17.2
01:30 1023 30.21 852 25.16 2 35.6 50 -7.2 19
01:35 1023 30.21 852 25.16 1.1 34 55 -6.8 19.7
01:40 1023 30.21 852 25.16 0.4 32.8 56 -7.3 18.8
01:45 1023 30.21 852 25.16 0.6 33.1 54 -7.6 18.3
01:50 1023 30.21 852 25.16 0.7 33.3 52 -8.1 17.5
01:55 1023 30.21 852 25.16 0.9 33.6 53 -7.7 18.2
02:00 1023 30.21 852 25.16 1.1 34 49 -8.6 16.6
02:05 1023 30.21 852 25.16 1.4 34.5 48 -8.5 16.8
02:10 1023 30.21 852 25.16 1.9 35.4 44 -9 15.7
02:15 1023 30.21 852 25.16 2.2 36 44 -8.9 15.9
02:20 1023 30.21 852 25.16 2.3 36.1 46 -8.3 17.1
02:25 1023 30.21 852 25.16 1.9 35.4 45 -8.9 16
02:30 1023 30.21 852 25.16 1.9 35.4 46 -8.6 16.5
02:35 1023 30.21 852 25.16 1.7 35.1 46 -8.6 16.6
02:40 1023 30.21 852 25.16 1.5 34.7 48 -8.2 17.2
02:45 1022 30.18 852 25.16 1.1 33.9 50 -8.2 17.2
02:50 1022 30.18 852 25.16 1.2 34.1 46 -9.2 15.4
02:55 1022 30.18 852 25.16 1.3 34.4 49 -8.4 16.9
03:00 1022 30.18 852 25.16 1.3 34.3 44 -9.6 14.7
03:05 1022 30.18 851 25.13 1.6 34.8 49 -8 17.6
03:10 1022 30.18 851 25.13 1 33.9 50 -8.3 17.1
03:15 1022 30.18 851 25.13 0.1 32.1 55 -8 17.6
03:20 1022 30.18 851 25.13 0.3 32.5 49 -9.1 15.5
03:25 1022 30.18 851 25.13 0.7 33.3 51 -8.4 16.9
03:30 1022 30.18 851 25.13 0.6 33.1 50 -8.7 16.3
03:35 1022 30.18 851 25.13 0.7 33.2 49 -9 15.9
03:40 1022 30.18 851 25.13 0.7 33.3 48 -9 15.8
03:45 1022 30.18 851 25.13 0.6 33.1 48 -9.2 15.5
03:50 1022 30.18 851 25.13 0.9 33.6 48 -8.9 16
03:55 1022 30.18 851 25.13 0.7 33.2 49 -8.9 16.1
04:00 1022 30.18 851 25.13 0.5 33 50 -8.6 16.5
04:05 1022 30.18 851 25.13 -0 32 53 -8.4 16.9
04:10 1022 30.18 851 25.13 -0.2 31.6 51 -9.1 15.6
04:15 1022 30.18 851 25.13 0.4 32.7 51 -8.6 16.5
04:20 1022 30.18 851 25.13 0.1 32.2 51 -8.8 16.2
04:25 1022 30.18 851 25.13 0.3 32.5 51 -8.8 16.2
04:30 1022 30.18 851 25.13 0.3 32.5 51 -8.8 16.1
04:35 1022 30.18 851 25.13 0.2 32.3 52 -8.6 16.5
04:40 1022 30.18 851 25.13 -0.2 31.7 53 -8.7 16.3
04:45 1022 30.18 851 25.13 0 32 50 -9.1 15.6
04:50 1022 30.18 851 25.13 0.2 32.4 51 -8.8 16.2
04:55 1022 30.18 851 25.13 0.1 32.1 52 -8.7 16.4
05:00 1022 30.18 851 25.13 -0.1 31.8 53 -8.6 16.6
05:05 1022 30.18 851 25.13 -0.2 31.6 53 -8.7 16.3
05:10 1022 30.18 851 25.13 -0.1 31.8 53 -8.6 16.5
05:15 1022 30.18 851 25.13 -0.1 31.8 52 -8.7 16.3
05:20 1022 30.18 851 25.13 -0.1 31.9 52 -8.7 16.3
05:25 1021 30.15 851 25.13 0 32.1 52 -8.7 16.4
05:30 1021 30.15 851 25.13 -0 32 53 -8.5 16.7
05:35 1021 30.15 851 25.13 -0 31.9 52 -8.7 16.3
05:40 1021 30.15 851 25.13 0.1 32.1 51 -8.9 16
05:45 1021 30.15 851 25.13 0.3 32.5 49 -9.1 15.6
05:50 1021 30.15 851 25.13 0.4 32.8 50 -8.9 16
05:55 1021 30.15 851 25.13 0.3 32.5 51 -8.7 16.3
06:00 1021 30.15 850 25.1 0 32.1 51 -8.9 15.9
06:05 1021 30.15 850 25.1 0.1 32.2 51 -8.8 16.2
06:10 1021 30.15 850 25.1 -0.2 31.7 52 -8.8 16.2
06:15 1021 30.15 850 25.1 -0.4 31.4 53 -8.9 16
06:20 1021 30.15 850 25.1 -0.4 31.3 53 -8.9 15.9
06:25 1021 30.15 850 25.1 -0.3 31.4 52 -9.1 15.6
06:30 1021 30.15 850 25.1 -0.2 31.7 50 -9.4 15.1
06:35 1021 30.15 850 25.1 0.1 32.3 50 -9 15.8
06:40 1021 30.15 850 25.1 0.1 32.1 51 -8.9 16
06:45 1021 30.15 850 25.1 -0.1 31.8 51 -9.1 15.6
06:50 1021 30.15 850 25.1 -0.1 31.9 51 -9.1 15.6
06:55 1021 30.15 850 25.1 -0.1 31.9 49 -9.5 15
07:00 1021 30.15 850 25.1 0.1 32.2 49 -9.5 14.9
07:05 1021 30.15 850 25.1 0.4 32.6 48 -9.5 15
07:10 1021 30.15 850 25.1 0.2 32.3 48 -9.5 14.9
07:15 1021 30.15 850 25.1 0.3 32.6 47 -9.7 14.5
07:20 1021 30.15 850 25.1 0.3 32.6 48 -9.4 15
07:25 1021 30.15 850 25.1 0.2 32.3 49 -9.4 15
07:30 1020 30.12 850 25.1 0.4 32.6 48 -9.4 15.1
07:35 1020 30.12 850 25.1 0.3 32.5 49 -9.3 15.3
07:40 1020 30.12 850 25.1 0 32 50 -9.2 15.4
07:45 1020 30.12 850 25.1 -0.1 31.8 49 -9.7 14.6
07:50 1020 30.12 850 25.1 0 32.1 47 -9.9 14.2
07:55 1020 30.12 850 25.1 0.3 32.5 46 -9.9 14.1
08:00 1020 30.12 850 25.1 0.4 32.8 46 -9.9 14.1
08:05 1021 30.15 850 25.1 0.7 33.3 45 -9.8 14.4
08:10 1021 30.15 850 25.1 0.8 33.4 45 -9.8 14.4
08:15 1021 30.15 850 25.1 0.8 33.4 46 -9.6 14.7
08:20 1021 30.15 850 25.1 0.5 32.9 47 -9.6 14.7
08:25 1021 30.15 850 25.1 0.5 32.8 44 -10.3 13.4
08:30 1021 30.15 850 25.1 0.8 33.4 44 -10 14
08:35 1021 30.15 850 25.1 1 33.9 42 -10.6 12.9
08:40 1021 30.15 850 25.1 1.6 34.8 40 -10.7 12.8
08:45 1021 30.15 850 25.1 1.6 34.9 44 -9.3 15.3
08:50 1021 30.15 850 25.1 1.8 35.2 45 -9 15.8
08:55 1021 30.15 850 25.1 2.2 35.9 45 -8.7 16.4
09:00 1021 30.15 850 25.1 2.4 36.2 44 -8.6 16.6
09:05 1021 30.15 850 25.1 2.6 36.7 44 -8.5 16.6
09:10 1021 30.15 850 25.1 3 37.4 42 -8.6 16.4
09:15 1021 30.15 850 25.1 3.3 38 42 -8.5 16.7
09:20 1021 30.15 850 25.1 4 39.2 41 -8.1 17.4
09:25 1021 30.15 850 25.1 3.9 39 39 -8.8 16.2
09:30 1021 30.15 850 25.1 4.2 39.6 38 -8.8 16.2
09:35 1021 30.15 850 25.1 4.1 39.5 39 -8.7 16.3
09:40 1021 30.15 850 25.1 4.2 39.5 39 -8.6 16.5
09:45 1021 30.15 850 25.1 4.1 39.4 38 -8.9 16
09:50 1021 30.15 850 25.1 4.3 39.7 38 -8.8 16.2
09:55 1020 30.12 850 25.1 4.8 40.7 36 -9 15.9
10:00 1020 30.12 850 25.1 5.2 41.3 37 -8.5 16.7
10:05 1020 30.12 850 25.1 5.2 41.4 36 -8.8 16.2
10:10 1020 30.12 849 25.07 5.4 41.7 34 -9.2 15.4
10:15 1020 30.12 849 25.07 5.3 41.5 34 -9.3 15.2
10:20 1020 30.12 849 25.07 5.7 42.2 32 -9.9 14.3
10:25 1020 30.12 849 25.07 5.9 42.5 32 -9.5 14.9
10:30 1020 30.12 849 25.07 5.9 42.7 32 -9.7 14.5
10:35 1020 30.12 849 25.07 5.8 42.5 33 -9.2 15.4
10:40 1020 30.12 849 25.07 6.3 43.4 32 -9.2 15.5
10:45 1020 30.12 849 25.07 6.9 44.3 30 -9.4 15.1
10:50 1020 30.12 849 25.07 7.1 44.8 27 -10.6 13
10:55 1020 30.12 849 25.07 7.6 45.6 26 -10.6 12.9
11:00 1020 30.12 849 25.07 7.9 46.2 24 -11.4 11.4
11:05 1020 30.12 849 25.07 7.7 45.8 25 -11.2 11.8
11:10 1020 30.12 849 25.07 8.1 46.5 25 -10.8 12.5
11:15 1020 30.12 849 25.07 8 46.4 24 -11.4 11.4
11:20 1020 30.12 849 25.07 8.2 46.7 24 -11.3 11.6
11:25 1020 30.12 849 25.07 8.3 46.9 25 -10.4 13.3
11:30 1020 30.12 849 25.07 8.3 47 26 -10.1 13.8
11:35 1020 30.12 849 25.07 8.5 47.3 28 -9.2 15.4
11:40 1019 30.09 849 25.07 8.2 46.7 27 -9.6 14.7
11:45 1019 30.09 849 25.07 8.3 47 26 -9.9 14.1
11:50 1019 30.09 849 25.07 9.2 48.6 26 -9.6 14.8
11:55 1019 30.09 848 25.04 10 50 24 -9.8 14.4
12:00 1019 30.09 848 25.04 9.8 49.6 23 -10.3 13.5
12:05 1019 30.09 848 25.04 9.8 49.6 22 -10.7 12.8
12:10 1019 30.09 848 25.04 9.9 49.8 23 -10.4 13.3
12:15 1019 30.09 848 25.04 9.8 49.7 21 -11.7 10.9
12:20 1019 30.09 848 25.04 10.5 50.8 20 -11.5 11.3
12:25 1019 30.09 848 25.04 11.7 53.1 19 -11.5 11.4
12:30 1019 30.09 848 25.04 12.2 53.9 19 -10.7 12.8
12:35 1019 30.09 848 25.04 11 51.9 20 -11 12.3
12:40 1019 30.09 848 25.04 11.1 51.9 20 -11.4 11.5
12:45 1019 30.09 848 25.04 10.7 51.3 21 -10.6 12.8
12:50 1018 30.06 848 25.04 11 51.9 20 -10.9 12.4
12:55 1018 30.06 848 25.04 11 51.8 20 -11 12.3
13:00 1018 30.06 847 25.01 11.3 52.3 21 -10.1 13.7
13:05 1018 30.06 847 25.01 11.6 53 19 -11 12.3
13:10 1018 30.06 847 25.01 12 53.6 19 -10.7 12.7
13:15 1018 30.06 847 25.01 12.3 54.1 19 -10.9 12.4
13:20 1018 30.06 847 25.01 12.2 53.9 19 -11.1 12.1
13:25 1018 30.06 847 25.01 12.3 54.1 20 -10.2 13.6
13:30 1018 30.06 847 25.01 12.4 54.3 19 -10.6 12.9
13:35 1018 30.06 847 25.01 12.4 54.3 20 -10.2 13.6
13:40 1018 30.06 847 25.01 12.6 54.6 19 -10.2 13.6
13:45 1018 30.06 847 25.01 12.7 54.8 18 -10.9 12.4
13:50 1018 30.06 847 25.01 13.4 56.2 16 -11.7 11
13:55 1018 30.06 847 25.01 14.2 57.5 15 -11.9 10.6
14:00 1018 30.06 847 25.01 12.5 54.5 19 -10.3 13.5
14:05 1018 30.06 847 25.01 11.8 53.3 20 -10.7 12.7
14:10 1017 30.03 847 25.01 11.5 52.8 20 -10.7 12.8
14:15 1017 30.03 847 25.01 11.8 53.2 18 -11.9 10.6
14:20 1017 30.03 846 24.98 11.7 53.1 18 -11.6 11.1
14:25 1017 30.03 846 24.98 12.3 54.2 18 -11.6 11.1
14:30 1017 30.03 846 24.98 12.9 55.1 16 -12.1 10.3
14:35 1017 30.03 846 24.98 13.6 56.4 17 -10.9 12.5
14:40 1017 30.03 846 24.98 13.3 55.9 16 -11.7 11
14:45 1017 30.03 846 24.98 14 57.2 15 -12.1 10.2
14:50 1017 30.03 846 24.98 14.8 58.6 14 -12.5 9.4
14:55 1017 30.03 846 24.98 15.4 59.8 13 -13.2 8.2
15:00 1016 30 846 24.98 15.4 59.8 13 -13 8.7
15:05 1016 30 846 24.98 15.2 59.3 13 -12.8 9
15:10 1016 30 845 24.95 15.2 59.3 14 -12.4 9.7
15:15 1016 30 845 24.95 14.9 58.7 14 -12.4 9.7
15:20 1016 30 845 24.95 14.2 57.5 14 -12.8 8.9
15:25 1016 30 845 24.95 14.1 57.3 16 -11.7 11
15:30 1016 30 845 24.95 13.5 56.2 16 -12 10.4
15:35 1016 30 845 24.95 12.8 55 18 -11.1 12
15:40 1016 30 845 24.95 12.9 55.2 18 -10.9 12.4
15:45 1016 30 845 24.95 13.3 56 18 -10.8 12.6
15:50 1016 30 845 24.95 13.6 56.5 16 -11.7 10.9
15:55 1016 30 845 24.95 13.8 56.9 15 -12.3 9.9
16:00 1015 29.97 845 24.95 13.7 56.6 16 -11.9 10.5
16:05 1015 29.97 845 24.95 13.6 56.4 15 -12.3 9.8
16:10 1015 29.97 844 24.92 13.5 56.4 16 -12.2 10.1
16:15 1015 29.97 844 24.92 13.4 56.2 16 -12.2 10
16:20 1015 29.97 844 24.92 13.4 56.1 16 -12.3 9.9
16:25 1015 29.97 844 24.92 13.4 56.2 17 -11.3 11.6
16:30 1015 29.97 844 24.92 13.5 56.2 16 -11.9 10.6
16:35 1015 29.97 844 24.92 13.5 56.2 17 -11 12.1
16:40 1015 29.97 844 24.92 13.6 56.4 15 -12.4 9.8
16:45 1015 29.97 844 24.92 13.6 56.5 18 -10.3 13.4
16:50 1015 29.97 844 24.92 13.9 56.9 16 -11.9 10.6
16:55 1015 29.97 844 24.92 14 57.1 16 -11.8 10.8
17:00 1015 29.97 844 24.92 13.9 56.9 15 -12.2 10
17:05 1015 29.97 844 24.92 13.7 56.6 17 -11.3 11.7
17:10 1015 29.97 844 24.92 13.7 56.6 15 -12.6 9.4
17:15 1015 29.97 844 24.92 14.1 57.4 15 -12 10.5
17:20 1015 29.97 844 24.92 13.8 56.9 15 -12 10.4
17:25 1015 29.97 844 24.92 13.5 56.3 16 -11.8 10.7
17:30 1015 29.97 844 24.92 13.3 55.9 17 -11.5 11.2
17:35 1015 29.97 844 24.92 13.2 55.7 17 -11.1 12
17:40 1015 29.97 844 24.92 13 55.4 17 -11.4 11.6
17:45 1015 29.97 844 24.92 13 55.4 17 -11.1 12
17:50 1015 29.97 844 24.92 13 55.4 18 -10.4 13.2
17:55 1015 29.97 844 24.92 12.8 55.1 19 -10.5 13.1
18:00 1014 29.94 844 24.92 12.6 54.8 19 -10.4 13.2
18:05 1014 29.94 844 24.92 12.5 54.5 20 -9.8 14.4
18:10 1014 29.94 844 24.92 12.4 54.4 20 -9.8 14.3
18:15 1014 29.94 844 24.92 12.3 54.2 21 -9.6 14.7
18:20 1014 29.94 844 24.92 12.2 53.9 22 -9.2 15.5
18:25 1014 29.94 844 24.92 12 53.6 21 -9.4 15.1
18:30 1014 29.94 844 24.92 11.8 53.2 23 -8.7 16.3
18:35 1014 29.94 843 24.89 11.8 53.2 22 -9.4 15.1
18:40 1014 29.94 843 24.89 12 53.6 21 -9.8 14.4
18:45 1014 29.94 843 24.89 12.2 53.9 20 -9.9 14.2
18:50 1014 29.94 844 24.92 12.1 53.7 22 -9.1 15.7
18:55 1015 29.97 844 24.92 11.8 53.2 22 -9.1 15.7
19:00 1015 29.97 844 24.92 11.7 53 24 -8.4 16.9
19:05 1015 29.97 844 24.92 11.5 52.7 24 -8.2 17.2
19:10 1015 29.97 844 24.92 11.3 52.4 23 -8.8 16.1
19:15 1015 29.97 844 24.92 11.3 52.3 26 -7.8 18
19:20 1015 29.97 844 24.92 10.8 51.4 29 -6.7 19.9
19:25 1015 29.97 844 24.92 9.9 49.8 31 -6.5 20.3
19:30 1015 29.97 844 24.92 9.4 48.8 31 -6.8 19.7
19:35 1015 29.97 844 24.92 9.2 48.6 31 -7.1 19.2
19:40 1015 29.97 844 24.92 9.2 48.6 31 -7 19.4
19:45 1015 29.97 844 24.92 9.1 48.3 32 -6.8 19.7
19:50 1015 29.97 844 24.92 9.2 48.5 32 -6.8 19.7
19:55 1015 29.97 844 24.92 9.5 49 30 -7.2 19.1
20:00 1015 29.97 844 24.92 9.6 49.2 29 -7.8 17.9
20:05 1015 29.97 844 24.92 9.5 49.2 29 -7.7 18.2
20:10 1015 29.97 844 24.92 9.2 48.6 30 -7.4 18.7
20:15 1015 29.97 844 24.92 9.4 48.9 27 -8.5 16.7
20:20 1015 29.97 844 24.92 9.7 49.5 28 -7.9 17.8
20:25 1015 29.97 844 24.92 9.6 49.2 28 -8.1 17.4
20:30 1015 29.97 844 24.92 9.6 49.2 30 -7.2 19.1
20:35 1015 29.97 844 24.92 9.1 48.5 31 -7.2 19.1
20:40 1015 29.97 844 24.92 8.7 47.6 34 -6.4 20.5
20:45 1015 29.97 844 24.92 8.5 47.3 32 -7.4 18.6
20:50 1015 29.97 844 24.92 8.6 47.5 32 -7 19.3
20:55 1015 29.97 844 24.92 8.6 47.4 32 -7.4 18.8
21:00 1015 29.97 844 24.92 8.7 47.6 32 -6.9 19.6
21:05 1015 29.97 844 24.92 8.6 47.5 32 -7.1 19.2
21:10 1015 29.97 844 24.92 8.5 47.3 33 -7 19.3
21:15 1015 29.97 844 24.92 8.4 47 31 -7.8 17.9
21:20 1014 29.94 844 24.92 8.5 47.2 31 -7.6 18.4
21:25 1014 29.94 844 24.92 8.4 47 33 -6.8 19.7
21:30 1014 29.94 844 24.92 7.9 46.3 35 -6.6 20.1
21:35 1014 29.94 844 24.92 7.7 45.9 34 -7 19.4
21:40 1015 29.97 844 24.92 7.8 46.1 34 -7 19.3
21:45 1015 29.97 844 24.92 7.9 46.3 34 -6.9 19.6
21:50 1015 29.97 844 24.92 8.1 46.5 33 -7.4 18.7
21:55 1015 29.97 844 24.92 8.3 46.9 33 -7.2 19.1
22:00 1015 29.97 844 24.92 8.1 46.6 35 -6.4 20.5
22:05 1014 29.94 844 24.92 8 46.4 32 -7.9 17.8
22:10 1014 29.94 844 24.92 9 48.3 30 -7.8 18
22:15 1014 29.94 843 24.89 9.6 49.2 29 -7.8 18
22:20 1014 29.94 843 24.89 10 49.9 28 -7.5 18.5
22:25 1014 29.94 843 24.89 9.9 49.7 31 -6.5 20.2
22:30 1014 29.94 843 24.89 8.9 48 33 -6.5 20.3
22:35 1014 29.94 843 24.89 8.4 47.1 34 -6.5 20.2
22:40 1014 29.94 843 24.89 8.2 46.8 35 -6.4 20.5
22:45 1014 29.94 843 24.89 8.1 46.6 34 -6.8 19.7
22:50 1014 29.94 843 24.89 8.4 47.1 33 -6.8 19.7
22:55 1014 29.94 843 24.89 8.3 46.9 34 -6.8 19.8
23:00 1014 29.94 843 24.89 8.2 46.8 34 -6.6 20.1
23:05 1014 29.94 843 24.89 8.2 46.8 33 -7 19.3
23:10 1014 29.94 843 24.89 8.5 47.2 32 -7.2 19
23:15 1014 29.94 843 24.89 8.7 47.6 33 -6.9 19.6
23:20 1014 29.94 843 24.89 8.5 47.2 33 -6.7 19.9
23:25 1014 29.94 843 24.89 8.3 47 34 -6.7 19.9
23:30 1014 29.94 843 24.89 8.2 46.7 36 -6.2 20.9
23:35 1014 29.94 843 24.89 7.9 46.3 35 -6.5 20.4
23:40 1014 29.94 843 24.89 8.2 46.8 33 -7.3 18.9
23:45 1014 29.94 843 24.89 8.9 48 32 -7 19.4
23:50 1014 29.94 843 24.89 8.8 47.8 33 -6.7 20
23:55 1014 29.94 843 24.89 8.6 47.5 32 -7 19.4
24:00 1014 29.94 843 24.89 8.8 47.9 32 -6.9 19.6